sensor_id;sensor_type;location;lat;lon;timestamp;pressure;altitude;pressure_sealevel;temperature;humidity
56518;BME280;42419;48.760;2.322;2023-07-13T00:00:17;101017.06;;;25.60;nan
56518;BME280;42419;48.760;2.322;2023-07-13T00:02:43;101016.13;;;25.61;nan
56518;BME280;42419;48.760;2.322;2023-07-13T00:05:08;101017.94;;;25.60;nan
56518;BME280;42419;48.760;2.322;2023-07-13T00:07:35;101015.25;;;25.60;nan
56518;BME280;42419;48.760;2.322;2023-07-13T00:10:01;101011.69;;;25.60;nan
56518;BME280;42419;48.760;2.322;2023-07-13T00:12:31;101017.06;;;25.60;nan
56518;BME280;42419;48.760;2.322;2023-07-13T00:15:00;101015.31;;;25.59;nan
56518;BME280;42419;48.760;2.322;2023-07-13T00:17:27;101013.50;;;25.59;nan
56518;BME280;42419;48.760;2.322;2023-07-13T00:19:53;101013.50;;;25.59;nan
56518;BME280;42419;48.760;2.322;2023-07-13T00:22:19;100988.41;;;25.43;nan
56518;BME280;42419;48.760;2.322;2023-07-13T00:24:44;101011.00;;;25.56;nan
56518;BME280;42419;48.760;2.322;2023-07-13T00:27:10;101009.34;;;25.54;nan
56518;BME280;42419;48.760;2.322;2023-07-13T00:29:36;101016.28;;;25.58;nan
56518;BME280;42419;48.760;2.322;2023-07-13T00:32:03;101013.59;;;25.58;nan
56518;BME280;42419;48.760;2.322;2023-07-13T00:34:28;101018.09;;;25.57;nan
56518;BME280;42419;48.760;2.322;2023-07-13T00:36:54;101021.69;;;25.58;nan
56518;BME280;42419;48.760;2.322;2023-07-13T00:39:19;101021.69;;;25.58;nan
56518;BME280;42419;48.760;2.322;2023-07-13T00:41:46;101019.16;;;25.55;nan
56518;BME280;42419;48.760;2.322;2023-07-13T00:44:16;101007.97;;;25.46;nan
56518;BME280;42419;48.760;2.322;2023-07-13T00:46:42;101037.09;;;25.56;nan
56518;BME280;42419;48.760;2.322;2023-07-13T00:49:10;101027.34;;;25.53;nan
56518;BME280;42419;48.760;2.322;2023-07-13T00:51:41;101038.91;;;25.55;nan
56518;BME280;42419;48.760;2.322;2023-07-13T00:54:11;101038.03;;;25.55;nan
56518;BME280;42419;48.760;2.322;2023-07-13T00:56:39;101042.56;;;25.54;nan
56518;BME280;42419;48.760;2.322;2023-07-13T00:59:07;101038.13;;;25.53;nan
56518;BME280;42419;48.760;2.322;2023-07-13T01:01:33;101026.84;;;25.46;nan
56518;BME280;42419;48.760;2.322;2023-07-13T01:03:58;101044.38;;;25.54;nan
56518;BME280;42419;48.760;2.322;2023-07-13T01:06:24;101049.78;;;25.54;nan
56518;BME280;42419;48.760;2.322;2023-07-13T01:08:49;101037.63;;;25.46;nan
56518;BME280;42419;48.760;2.322;2023-07-13T01:11:19;101046.22;;;25.53;nan
56518;BME280;42419;48.760;2.322;2023-07-13T01:13:45;101044.50;;;25.52;nan
56518;BME280;42419;48.760;2.322;2023-07-13T01:16:25;101049.88;;;25.52;nan
56518;BME280;42419;48.760;2.322;2023-07-13T01:18:51;101053.53;;;25.51;nan
56518;BME280;42419;48.760;2.322;2023-07-13T01:21:16;101048.13;;;25.51;nan
56518;BME280;42419;48.760;2.322;2023-07-13T01:23:42;101051.88;;;25.48;nan
56518;BME280;42419;48.760;2.322;2023-07-13T01:26:09;101047.28;;;25.51;nan
56518;BME280;42419;48.760;2.322;2023-07-13T01:28:34;101047.28;;;25.51;nan
56518;BME280;42419;48.760;2.322;2023-07-13T01:31:02;101034.13;;;25.44;nan
56518;BME280;42419;48.760;2.322;2023-07-13T01:33:28;101056.22;;;25.51;nan
56518;BME280;42419;48.760;2.322;2023-07-13T01:35:53;101058.94;;;25.51;nan
56518;BME280;42419;48.760;2.322;2023-07-13T01:38:21;101054.56;;;25.48;nan
56518;BME280;42419;48.760;2.322;2023-07-13T01:40:48;101058.06;;;25.51;nan
56518;BME280;42419;48.760;2.322;2023-07-13T01:43:13;101054.47;;;25.50;nan
56518;BME280;42419;48.760;2.322;2023-07-13T01:45:39;101023.19;;;25.32;nan
56518;BME280;42419;48.760;2.322;2023-07-13T01:48:05;101047.78;;;25.41;nan
56518;BME280;42419;48.760;2.322;2023-07-13T01:50:32;101043.34;;;25.40;nan
56518;BME280;42419;48.760;2.322;2023-07-13T01:52:57;101055.53;;;25.47;nan
56518;BME280;42419;48.760;2.322;2023-07-13T01:55:23;101064.50;;;25.48;nan
56518;BME280;42419;48.760;2.322;2023-07-13T01:57:48;101061.88;;;25.46;nan
56518;BME280;42419;48.760;2.322;2023-07-13T02:00:14;101074.50;;;25.46;nan
56518;BME280;42419;48.760;2.322;2023-07-13T02:02:39;101039.44;;;25.30;nan
56518;BME280;42419;48.760;2.322;2023-07-13T02:05:06;101066.47;;;25.44;nan
56518;BME280;42419;48.760;2.322;2023-07-13T02:07:31;101057.09;;;25.36;nan
56518;BME280;42419;48.760;2.322;2023-07-13T02:09:57;101059.38;;;25.43;nan
56518;BME280;42419;48.760;2.322;2023-07-13T02:12:22;101053.38;;;25.38;nan
56518;BME280;42419;48.760;2.322;2023-07-13T02:14:47;101075.56;;;25.43;nan
56518;BME280;42419;48.760;2.322;2023-07-13T02:17:13;101075.56;;;25.43;nan
56518;BME280;42419;48.760;2.322;2023-07-13T02:19:38;101075.56;;;25.43;nan
56518;BME280;42419;48.760;2.322;2023-07-13T02:22:04;101075.56;;;25.43;nan
56518;BME280;42419;48.760;2.322;2023-07-13T02:24:29;101054.59;;;25.33;nan
56518;BME280;42419;48.760;2.322;2023-07-13T02:26:54;101071.09;;;25.42;nan
56518;BME280;42419;48.760;2.322;2023-07-13T02:29:20;101057.78;;;25.39;nan
56518;BME280;42419;48.760;2.322;2023-07-13T02:31:45;101038.66;;;25.28;nan
56518;BME280;42419;48.760;2.322;2023-07-13T02:34:11;101053.19;;;25.41;nan
56518;BME280;42419;48.760;2.322;2023-07-13T02:36:36;101057.78;;;25.39;nan
56518;BME280;42419;48.760;2.322;2023-07-13T02:39:04;101058.56;;;25.41;nan
56518;BME280;42419;48.760;2.322;2023-07-13T02:41:29;101054.06;;;25.42;nan
56518;BME280;42419;48.760;2.322;2023-07-13T02:43:54;101054.13;;;25.40;nan
56518;BME280;42419;48.760;2.322;2023-07-13T02:46:28;101061.28;;;25.41;nan
56518;BME280;42419;48.760;2.322;2023-07-13T02:48:53;101034.91;;;25.31;nan
56518;BME280;42419;48.760;2.322;2023-07-13T02:51:19;100982.81;;;24.83;nan
56518;BME280;42419;48.760;2.322;2023-07-13T02:53:44;101058.66;;;25.40;nan
56518;BME280;42419;48.760;2.322;2023-07-13T02:56:09;101063.16;;;25.39;nan
56518;BME280;42419;48.760;2.322;2023-07-13T02:58:35;101057.28;;;25.33;nan
56518;BME280;42419;48.760;2.322;2023-07-13T03:01:09;101052.06;;;25.30;nan
56518;BME280;42419;48.760;2.322;2023-07-13T03:03:35;101070.41;;;25.39;nan
56518;BME280;42419;48.760;2.322;2023-07-13T03:06:02;101072.25;;;25.38;nan
56518;BME280;42419;48.760;2.322;2023-07-13T03:08:28;101071.38;;;25.38;nan
56518;BME280;42419;48.760;2.322;2023-07-13T03:11:01;101073.19;;;25.37;nan
56518;BME280;42419;48.760;2.322;2023-07-13T03:13:27;101068.25;;;25.30;nan
56518;BME280;42419;48.760;2.322;2023-07-13T03:15:52;101083.97;;;25.37;nan
56518;BME280;42419;48.760;2.322;2023-07-13T03:18:18;101074.31;;;25.33;nan
56518;BME280;42419;48.760;2.322;2023-07-13T03:20:43;101073.25;;;25.36;nan
56518;BME280;42419;48.760;2.322;2023-07-13T03:23:09;101075.97;;;25.36;nan
56518;BME280;42419;48.760;2.322;2023-07-13T03:25:34;101089.44;;;25.36;nan
56518;BME280;42419;48.760;2.322;2023-07-13T03:27:59;101083.19;;;25.35;nan
56518;BME280;42419;48.760;2.322;2023-07-13T03:30:25;101083.19;;;25.35;nan
56518;BME280;42419;48.760;2.322;2023-07-13T03:32:50;101082.31;;;25.35;nan
56518;BME280;42419;48.760;2.322;2023-07-13T03:35:16;101073.09;;;25.23;nan
56518;BME280;42419;48.760;2.322;2023-07-13T03:37:41;101092.31;;;25.33;nan
56518;BME280;42419;48.760;2.322;2023-07-13T03:40:08;101088.75;;;25.32;nan
56518;BME280;42419;48.760;2.322;2023-07-13T03:42:34;101096.84;;;25.32;nan
56518;BME280;42419;48.760;2.322;2023-07-13T03:44:59;101094.13;;;25.32;nan
56518;BME280;42419;48.760;2.322;2023-07-13T03:47:25;101096.91;;;25.31;nan
56518;BME280;42419;48.760;2.322;2023-07-13T03:49:50;101075.09;;;25.20;nan
56518;BME280;42419;48.760;2.322;2023-07-13T03:52:15;101077.59;;;25.23;nan
56518;BME280;42419;48.760;2.322;2023-07-13T03:54:41;101085.44;;;25.27;nan
56518;BME280;42419;48.760;2.322;2023-07-13T03:57:06;101081.25;;;25.22;nan
56518;BME280;42419;48.760;2.322;2023-07-13T03:59:32;101091.63;;;25.29;nan
56518;BME280;42419;48.760;2.322;2023-07-13T04:01:57;101093.44;;;25.29;nan
56518;BME280;42419;48.760;2.322;2023-07-13T04:04:22;101101.59;;;25.27;nan
56518;BME280;42419;48.760;2.322;2023-07-13T04:06:48;101092.66;;;25.27;nan
56518;BME280;42419;48.760;2.322;2023-07-13T04:09:13;101107.88;;;25.28;nan
56518;BME280;42419;48.760;2.322;2023-07-13T04:11:38;101104.31;;;25.27;nan
56518;BME280;42419;48.760;2.322;2023-07-13T04:14:04;101099.09;;;25.24;nan
56518;BME280;42419;48.760;2.322;2023-07-13T04:16:29;101115.00;;;25.29;nan
56518;BME280;42419;48.760;2.322;2023-07-13T04:18:56;101109.69;;;25.27;nan
56518;BME280;42419;48.760;2.322;2023-07-13T04:21:26;101107.88;;;25.28;nan
56518;BME280;42419;48.760;2.322;2023-07-13T04:23:51;101114.22;;;25.27;nan
56518;BME280;42419;48.760;2.322;2023-07-13T04:26:17;101112.41;;;25.27;nan
56518;BME280;42419;48.760;2.322;2023-07-13T04:28:45;101116.03;;;25.26;nan
56518;BME280;42419;48.760;2.322;2023-07-13T04:31:10;101129.50;;;25.26;nan
56518;BME280;42419;48.760;2.322;2023-07-13T04:33:36;101118.72;;;25.26;nan
56518;BME280;42419;48.760;2.322;2023-07-13T04:36:01;101124.13;;;25.26;nan
56518;BME280;42419;48.760;2.322;2023-07-13T04:38:29;101122.28;;;25.27;nan
56518;BME280;42419;48.760;2.322;2023-07-13T04:40:56;101125.00;;;25.27;nan
56518;BME280;42419;48.760;2.322;2023-07-13T04:43:23;101120.56;;;25.26;nan
56518;BME280;42419;48.760;2.322;2023-07-13T04:45:50;101124.13;;;25.26;nan
56518;BME280;42419;48.760;2.322;2023-07-13T04:48:15;101126.81;;;25.26;nan
56518;BME280;42419;48.760;2.322;2023-07-13T04:50:41;101126.91;;;25.25;nan
56518;BME280;42419;48.760;2.322;2023-07-13T04:53:06;101132.22;;;25.26;nan
56518;BME280;42419;48.760;2.322;2023-07-13T04:55:31;101128.63;;;25.26;nan
56518;BME280;42419;48.760;2.322;2023-07-13T04:57:57;101135.00;;;25.25;nan
56518;BME280;42419;48.760;2.322;2023-07-13T05:00:26;101130.50;;;25.25;nan
56518;BME280;42419;48.760;2.322;2023-07-13T05:02:51;101121.53;;;25.25;nan
56518;BME280;42419;48.760;2.322;2023-07-13T05:05:17;101117.00;;;25.25;nan
56518;BME280;42419;48.760;2.322;2023-07-13T05:07:42;101121.53;;;25.25;nan
56518;BME280;42419;48.760;2.322;2023-07-13T05:10:09;101127.94;;;25.22;nan
56518;BME280;42419;48.760;2.322;2023-07-13T05:12:34;101111.16;;;25.17;nan
56518;BME280;42419;48.760;2.322;2023-07-13T05:14:59;101123.34;;;25.24;nan
56518;BME280;42419;48.760;2.322;2023-07-13T05:17:25;101117.97;;;25.24;nan
56518;BME280;42419;48.760;2.322;2023-07-13T05:19:50;101124.31;;;25.23;nan
56518;BME280;42419;48.760;2.322;2023-07-13T05:22:15;101120.66;;;25.24;nan
56518;BME280;42419;48.760;2.322;2023-07-13T05:24:41;101127.00;;;25.23;nan
56518;BME280;42419;48.760;2.322;2023-07-13T05:27:06;101141.41;;;25.22;nan
56518;BME280;42419;48.760;2.322;2023-07-13T05:29:31;101118.00;;;25.07;nan
56518;BME280;42419;48.760;2.322;2023-07-13T05:31:57;101139.06;;;24.99;nan
56518;BME280;42419;48.760;2.322;2023-07-13T05:34:23;101156.84;;;25.03;nan
56518;BME280;42419;48.760;2.322;2023-07-13T05:36:48;101154.22;;;25.01;nan
56518;BME280;42419;48.760;2.322;2023-07-13T05:39:15;101161.22;;;24.88;nan
56518;BME280;42419;48.760;2.322;2023-07-13T05:41:40;101159.41;;;24.72;nan
56518;BME280;42419;48.760;2.322;2023-07-13T05:44:05;101163.19;;;23.60;nan
56518;BME280;42419;48.760;2.322;2023-07-13T05:46:31;101139.28;;;22.56;nan
56518;BME280;42419;48.760;2.322;2023-07-13T05:48:56;101162.78;;;22.71;nan
56518;BME280;42419;48.760;2.322;2023-07-13T05:51:21;101167.31;;;22.05;nan
56518;BME280;42419;48.760;2.322;2023-07-13T05:53:47;101162.94;;;22.04;nan
56518;BME280;42419;48.760;2.322;2023-07-13T05:56:12;101161.75;;;22.31;nan
56518;BME280;42419;48.760;2.322;2023-07-13T05:58:41;101164.41;;;22.53;nan
56518;BME280;42419;48.760;2.322;2023-07-13T06:01:10;101165.09;;;22.58;nan
56518;BME280;42419;48.760;2.322;2023-07-13T06:03:36;101162.63;;;22.54;nan
56518;BME280;42419;48.760;2.322;2023-07-13T06:06:04;101167.34;;;22.47;nan
56518;BME280;42419;48.760;2.322;2023-07-13T06:08:30;101167.91;;;21.68;nan
56518;BME280;42419;48.760;2.322;2023-07-13T06:11:09;101177.94;;;21.17;nan
56518;BME280;42419;48.760;2.322;2023-07-13T06:13:35;101176.59;;;21.03;nan
56518;BME280;42419;48.760;2.322;2023-07-13T06:16:01;101168.84;;;21.21;nan
56518;BME280;42419;48.760;2.322;2023-07-13T06:18:29;101180.03;;;21.07;nan
56518;BME280;42419;48.760;2.322;2023-07-13T06:20:54;101180.28;;;21.49;nan
56518;BME280;42419;48.760;2.322;2023-07-13T06:23:20;101187.47;;;21.47;nan
56518;BME280;42419;48.760;2.322;2023-07-13T06:25:48;101161.03;;;21.38;nan
56518;BME280;42419;48.760;2.322;2023-07-13T06:28:13;101181.88;;;21.76;nan
56518;BME280;42419;48.760;2.322;2023-07-13T06:30:39;101191.13;;;21.91;nan
56518;BME280;42419;48.760;2.322;2023-07-13T06:33:05;101196.28;;;21.97;nan
56518;BME280;42419;48.760;2.322;2023-07-13T06:35:30;101198.25;;;22.14;nan
56518;BME280;42419;48.760;2.322;2023-07-13T06:37:55;101193.09;;;22.31;nan
56518;BME280;42419;48.760;2.322;2023-07-13T06:40:20;101156.84;;;22.21;nan
56518;BME280;42419;48.760;2.322;2023-07-13T06:42:46;101193.50;;;22.42;nan
56518;BME280;42419;48.760;2.322;2023-07-13T06:45:11;101200.13;;;22.55;nan
56518;BME280;42419;48.760;2.322;2023-07-13T06:47:36;101192.56;;;22.65;nan
56518;BME280;42419;48.760;2.322;2023-07-13T06:50:02;101195.09;;;22.68;nan
56518;BME280;42419;48.760;2.322;2023-07-13T06:52:27;101193.25;;;22.70;nan
56518;BME280;42419;48.760;2.322;2023-07-13T06:54:53;101195.44;;;22.80;nan
56518;BME280;42419;48.760;2.322;2023-07-13T06:57:18;101196.28;;;22.62;nan
56518;BME280;42419;48.760;2.322;2023-07-13T06:59:43;101202.44;;;22.64;nan
56518;BME280;42419;48.760;2.322;2023-07-13T07:02:10;101203.44;;;22.62;nan
56518;BME280;42419;48.760;2.322;2023-07-13T07:04:36;101183.09;;;22.56;nan
56518;BME280;42419;48.760;2.322;2023-07-13T07:07:01;101210.22;;;22.70;nan
56518;BME280;42419;48.760;2.322;2023-07-13T07:09:26;101191.28;;;22.73;nan
56518;BME280;42419;48.760;2.322;2023-07-13T07:11:52;101202.38;;;22.86;nan
56518;BME280;42419;48.760;2.322;2023-07-13T07:14:17;101208.66;;;22.85;nan
56518;BME280;42419;48.760;2.322;2023-07-13T07:16:43;101199.88;;;22.81;nan
56518;BME280;42419;48.760;2.322;2023-07-13T07:19:08;101202.72;;;22.78;nan
56518;BME280;42419;48.760;2.322;2023-07-13T07:21:33;101204.31;;;22.82;nan
56518;BME280;42419;48.760;2.322;2023-07-13T07:23:58;101205.19;;;22.83;nan
56518;BME280;42419;48.760;2.322;2023-07-13T07:26:25;101215.78;;;22.86;nan
56518;BME280;42419;48.760;2.322;2023-07-13T07:28:50;101213.94;;;22.88;nan
56518;BME280;42419;48.760;2.322;2023-07-13T07:31:16;101212.84;;;22.92;nan
56518;BME280;42419;48.760;2.322;2023-07-13T07:33:41;101224.94;;;23.02;nan
56518;BME280;42419;48.760;2.322;2023-07-13T07:36:06;101196.59;;;22.95;nan
56518;BME280;42419;48.760;2.322;2023-07-13T07:38:32;101125.59;;;22.62;nan
56518;BME280;42419;48.760;2.322;2023-07-13T07:40:57;101202.81;;;23.16;nan
56518;BME280;42419;48.760;2.322;2023-07-13T07:43:23;101216.31;;;23.35;nan
56518;BME280;42419;48.760;2.322;2023-07-13T07:45:48;101224.78;;;23.46;nan
56518;BME280;42419;48.760;2.322;2023-07-13T07:48:13;101227.97;;;23.54;nan
56518;BME280;42419;48.760;2.322;2023-07-13T07:50:39;101226.72;;;23.61;nan
56518;BME280;42419;48.760;2.322;2023-07-13T07:53:05;101226.41;;;23.68;nan
56518;BME280;42419;48.760;2.322;2023-07-13T07:55:34;101227.91;;;23.74;nan
56518;BME280;42419;48.760;2.322;2023-07-13T07:58:08;101236.63;;;23.79;nan
56518;BME280;42419;48.760;2.322;2023-07-13T08:00:34;101233.72;;;23.84;nan
56518;BME280;42419;48.760;2.322;2023-07-13T08:03:00;101224.53;;;23.89;nan
56518;BME280;42419;48.760;2.322;2023-07-13T08:05:26;101208.75;;;23.82;nan
56518;BME280;42419;48.760;2.322;2023-07-13T08:07:51;101232.09;;;24.00;nan
56518;BME280;42419;48.760;2.322;2023-07-13T08:10:17;101216.25;;;23.94;nan
56518;BME280;42419;48.760;2.322;2023-07-13T08:12:42;101221.34;;;24.00;nan
56518;BME280;42419;48.760;2.322;2023-07-13T08:15:11;101232.44;;;24.11;nan
56518;BME280;42419;48.760;2.322;2023-07-13T08:17:40;101220.91;;;24.09;nan
56518;BME280;42419;48.760;2.322;2023-07-13T08:20:06;101241.97;;;24.18;nan
56518;BME280;42419;48.760;2.322;2023-07-13T08:22:33;101243.56;;;24.22;nan
56518;BME280;42419;48.760;2.322;2023-07-13T08:24:59;101222.38;;;24.14;nan
56518;BME280;42419;48.760;2.322;2023-07-13T08:27:26;101244.22;;;24.27;nan
56518;BME280;42419;48.760;2.322;2023-07-13T08:29:52;101231.06;;;24.21;nan
56518;BME280;42419;48.760;2.322;2023-07-13T08:32:19;101236.03;;;24.29;nan
56518;BME280;42419;48.760;2.322;2023-07-13T08:34:45;101239.69;;;24.28;nan
56518;BME280;42419;48.760;2.322;2023-07-13T08:37:10;101222.09;;;24.21;nan
56518;BME280;42419;48.760;2.322;2023-07-13T08:39:36;101228.13;;;24.26;nan
56518;BME280;42419;48.760;2.322;2023-07-13T08:45:22;101236.63;;;24.35;nan
56518;BME280;42419;48.760;2.322;2023-07-13T08:47:54;101238.38;;;24.36;nan
56518;BME280;42419;48.760;2.322;2023-07-13T08:50:31;101242.66;;;24.40;nan
56518;BME280;42419;48.760;2.322;2023-07-13T08:52:58;101244.31;;;24.43;nan
56518;BME280;42419;48.760;2.322;2023-07-13T08:55:28;101244.25;;;24.44;nan
56518;BME280;42419;48.760;2.322;2023-07-13T08:58:16;101245.13;;;24.45;nan
56518;BME280;42419;48.760;2.322;2023-07-13T09:00:54;101241.47;;;24.46;nan
56518;BME280;42419;48.760;2.322;2023-07-13T09:03:25;101242.34;;;24.46;nan
56518;BME280;42419;48.760;2.322;2023-07-13T09:05:58;101236.94;;;24.46;nan
56518;BME280;42419;48.760;2.322;2023-07-13T09:08:36;101240.47;;;24.48;nan
56518;BME280;42419;48.760;2.322;2023-07-13T09:16:57;101244.75;;;24.52;nan
56518;BME280;42419;48.760;2.322;2023-07-13T09:19:27;101244.59;;;24.55;nan
56518;BME280;42419;48.760;2.322;2023-07-13T09:21:54;101242.13;;;24.51;nan
56518;BME280;42419;48.760;2.322;2023-07-13T09:26:58;101235.59;;;24.56;nan
56518;BME280;42419;48.760;2.322;2023-07-13T09:29:30;101218.78;;;24.51;nan
56518;BME280;42419;48.760;2.322;2023-07-13T09:32:01;101233.31;;;24.66;nan
56518;BME280;42419;48.760;2.322;2023-07-13T09:34:28;101239.41;;;24.70;nan
56518;BME280;42419;48.760;2.322;2023-07-13T09:36:55;101241.16;;;24.71;nan
56518;BME280;42419;48.760;2.322;2023-07-13T09:39:40;101232.19;;;24.70;nan
56518;BME280;42419;48.760;2.322;2023-07-13T09:42:15;101239.41;;;24.70;nan
56518;BME280;42419;48.760;2.322;2023-07-13T09:44:55;101239.63;;;24.65;nan
56518;BME280;42419;48.760;2.322;2023-07-13T09:47:29;101243.25;;;24.64;nan
56518;BME280;42419;48.760;2.322;2023-07-13T09:52:25;101243.59;;;24.58;nan
56518;BME280;42419;48.760;2.322;2023-07-13T09:54:53;101243.59;;;24.58;nan
56518;BME280;42419;48.760;2.322;2023-07-13T09:57:25;101240.03;;;24.57;nan
56518;BME280;42419;48.760;2.322;2023-07-13T09:59:53;101248.41;;;24.51;nan
56518;BME280;42419;48.760;2.322;2023-07-13T10:02:29;101248.41;;;24.51;nan
56518;BME280;42419;48.760;2.322;2023-07-13T10:04:57;101250.16;;;24.52;nan
56518;BME280;42419;48.760;2.322;2023-07-13T10:07:24;101224.59;;;24.42;nan
56518;BME280;42419;48.760;2.322;2023-07-13T10:09:53;101250.78;;;24.57;nan
56518;BME280;42419;48.760;2.322;2023-07-13T10:12:19;101257.75;;;24.62;nan
56518;BME280;42419;48.760;2.322;2023-07-13T10:14:46;101245.41;;;24.57;nan
56518;BME280;42419;48.760;2.322;2023-07-13T10:17:14;101257.59;;;24.65;nan
56518;BME280;42419;48.760;2.322;2023-07-13T10:19:41;101248.75;;;24.63;nan
56518;BME280;42419;48.760;2.322;2023-07-13T10:22:23;101247.16;;;24.58;nan
56518;BME280;42419;48.760;2.322;2023-07-13T10:24:51;101251.91;;;24.71;nan
56518;BME280;42419;48.760;2.322;2023-07-13T10:27:23;101254.44;;;24.74;nan
56518;BME280;42419;48.760;2.322;2023-07-13T10:30:24;101255.25;;;24.76;nan
56518;BME280;42419;48.760;2.322;2023-07-13T10:32:58;101230.91;;;24.60;nan
56518;BME280;42419;48.760;2.322;2023-07-13T10:35:26;101235.28;;;24.63;nan
56518;BME280;42419;48.760;2.322;2023-07-13T10:37:59;101265.69;;;24.82;nan
56518;BME280;42419;48.760;2.322;2023-07-13T10:40:35;101229.09;;;24.60;nan
56518;BME280;42419;48.760;2.322;2023-07-13T10:43:06;101272.75;;;24.84;nan
56518;BME280;42419;48.760;2.322;2023-07-13T10:45:35;101272.66;;;24.86;nan
56518;BME280;42419;48.760;2.322;2023-07-13T10:48:01;101258.25;;;24.87;nan
56518;BME280;42419;48.760;2.322;2023-07-13T10:50:29;101238.69;;;24.66;nan
56518;BME280;42419;48.760;2.322;2023-07-13T10:53:02;101279.81;;;24.87;nan
56518;BME280;42419;48.760;2.322;2023-07-13T10:58:28;101271.66;;;24.88;nan
56518;BME280;42419;48.760;2.322;2023-07-13T11:03:33;101274.28;;;24.90;nan
56518;BME280;42419;48.760;2.322;2023-07-13T11:11:38;101286.00;;;24.89;nan
56518;BME280;42419;48.760;2.322;2023-07-13T11:14:07;101279.97;;;24.84;nan
56518;BME280;42419;48.760;2.322;2023-07-13T11:16:49;101272.66;;;24.86;nan
56518;BME280;42419;48.760;2.322;2023-07-13T11:22:09;101272.66;;;24.86;nan
56518;BME280;42419;48.760;2.322;2023-07-13T11:24:52;101271.72;;;24.87;nan
56518;BME280;42419;48.760;2.322;2023-07-13T11:30:21;101271.66;;;24.88;nan
56518;BME280;42419;48.760;2.322;2023-07-13T11:35:37;101261.59;;;24.92;nan
56518;BME280;42419;48.760;2.322;2023-07-13T11:38:15;101247.09;;;24.94;nan
56518;BME280;42419;48.760;2.322;2023-07-13T11:40:42;101256.03;;;24.95;nan
56518;BME280;42419;48.760;2.322;2023-07-13T11:43:13;101254.06;;;24.98;nan
56518;BME280;42419;48.760;2.322;2023-07-13T11:45:38;101250.34;;;25.01;nan
56518;BME280;42419;48.760;2.322;2023-07-13T11:48:04;101224.91;;;24.89;nan
56518;BME280;42419;48.760;2.322;2023-07-13T11:50:29;101214.03;;;24.91;nan
56518;BME280;42419;48.760;2.322;2023-07-13T11:52:57;101237.44;;;25.08;nan
56518;BME280;42419;48.760;2.322;2023-07-13T11:55:24;101206.13;;;24.88;nan
56518;BME280;42419;48.760;2.322;2023-07-13T11:58:01;101215.63;;;24.95;nan
56518;BME280;42419;48.760;2.322;2023-07-13T12:00:29;101206.06;;;24.89;nan
56518;BME280;42419;48.760;2.322;2023-07-13T12:02:59;101224.34;;;25.00;nan
56518;BME280;42419;48.760;2.322;2023-07-13T12:05:26;101230.53;;;25.02;nan
56518;BME280;42419;48.760;2.322;2023-07-13T12:07:52;101201.78;;;24.85;nan
56518;BME280;42419;48.760;2.322;2023-07-13T12:10:28;101191.16;;;24.82;nan
56518;BME280;42419;48.760;2.322;2023-07-13T12:13:01;101236.63;;;25.05;nan
56518;BME280;42419;48.760;2.322;2023-07-13T12:18:00;101239.25;;;25.07;nan
56518;BME280;42419;48.760;2.322;2023-07-13T12:20:33;101237.50;;;25.06;nan
56518;BME280;42419;48.760;2.322;2023-07-13T12:23:00;101222.44;;;25.02;nan
56518;BME280;42419;48.760;2.322;2023-07-13T12:25:27;101190.13;;;24.85;nan
56518;BME280;42419;48.760;2.322;2023-07-13T12:27:53;101228.47;;;25.07;nan
56518;BME280;42419;48.760;2.322;2023-07-13T12:30:28;101229.41;;;25.06;nan
56518;BME280;42419;48.760;2.322;2023-07-13T12:33:11;101227.66;;;25.05;nan
56518;BME280;42419;48.760;2.322;2023-07-13T12:35:44;101219.56;;;25.05;nan
56518;BME280;42419;48.760;2.322;2023-07-13T12:38:11;101221.31;;;25.06;nan
56518;BME280;42419;48.760;2.322;2023-07-13T12:40:37;101216.94;;;25.03;nan
56518;BME280;42419;48.760;2.322;2023-07-13T12:43:03;101216.00;;;25.04;nan
56518;BME280;42419;48.760;2.322;2023-07-13T12:45:30;101214.50;;;24.99;nan
56518;BME280;42419;48.760;2.322;2023-07-13T12:47:58;101217.69;;;25.07;nan
56518;BME280;42419;48.760;2.322;2023-07-13T12:50:30;101224.78;;;25.08;nan
56518;BME280;42419;48.760;2.322;2023-07-13T12:53:04;101225.66;;;25.09;nan
56518;BME280;42419;48.760;2.322;2023-07-13T12:55:41;101217.53;;;25.10;nan
56518;BME280;42419;48.760;2.322;2023-07-13T12:58:13;101215.66;;;25.12;nan
56518;BME280;42419;48.760;2.322;2023-07-13T13:00:48;101219.34;;;25.10;nan
56518;BME280;42419;48.760;2.322;2023-07-13T13:06:02;101216.72;;;25.08;nan
56518;BME280;42419;48.760;2.322;2023-07-13T13:08:31;101191.28;;;24.96;nan
56518;BME280;42419;48.760;2.322;2023-07-13T13:10:56;101200.97;;;25.00;nan
56518;BME280;42419;48.760;2.322;2023-07-13T13:13:21;101215.00;;;25.07;nan
56518;BME280;42419;48.760;2.322;2023-07-13T13:15:47;101197.63;;;24.95;nan
56518;BME280;42419;48.760;2.322;2023-07-13T13:18:20;101191.72;;;24.89;nan
56518;BME280;42419;48.760;2.322;2023-07-13T13:20:47;101221.50;;;25.03;nan
56518;BME280;42419;48.760;2.322;2023-07-13T13:23:14;101208.88;;;25.03;nan
56518;BME280;42419;48.760;2.322;2023-07-13T13:25:43;101202.63;;;25.03;nan
56518;BME280;42419;48.760;2.322;2023-07-13T13:28:14;101173.16;;;24.83;nan
56518;BME280;42419;48.760;2.322;2023-07-13T13:30:42;101204.53;;;25.01;nan
56518;BME280;42419;48.760;2.322;2023-07-13T13:33:10;101207.84;;;25.06;nan
56518;BME280;42419;48.760;2.322;2023-07-13T13:35:37;101209.50;;;25.09;nan
56518;BME280;42419;48.760;2.322;2023-07-13T13:38:04;101205.84;;;25.10;nan
56518;BME280;42419;48.760;2.322;2023-07-13T13:40:34;101182.34;;;24.96;nan
56518;BME280;42419;48.760;2.322;2023-07-13T13:42:59;101185.66;;;25.01;nan
56518;BME280;42419;48.760;2.322;2023-07-13T13:45:24;101212.09;;;25.12;nan
56518;BME280;42419;48.760;2.322;2023-07-13T13:47:50;101120.44;;;24.62;nan
56518;BME280;42419;48.760;2.322;2023-07-13T13:50:21;101204.28;;;25.05;nan